Terminal Aerodrome Forecast
Issued by NWS

Home | Current Version | Previous Version | Text Only | Print | Product List | Glossary On
Versions: 1 2 3 4 5 6 7 8 9 10 11 12 13 14 15
778
FTUS42 KTBW 022320
TAFPGD
TAF
KPGD 022320Z 0300/0324 25009KT P6SM SCT250
     FM030300 12005KT P6SM FEW040 SCT250
     FM031000 16005KT 5SM BR SCT005 BKN010
     FM031400 25010KT P6SM SCT025 BKN070=

USA.gov is the U.S. government's official web portal to all federal, state and local government web resources and services.